createdAt,value
2023-04-01T00:00:12.574Z,85.96
2023-04-01T00:01:12.594Z,86.58
2023-04-01T00:02:12.645Z,86.06
2023-04-01T00:03:12.647Z,85.75
2023-04-01T00:04:12.581Z,85.24
2023-04-01T00:05:12.532Z,85.24
2023-04-01T00:06:12.516Z,84.48
2023-04-01T00:07:12.510Z,84.69
2023-04-01T00:08:12.502Z,85.10
2023-04-01T00:09:12.493Z,84.58
2023-04-01T00:10:12.471Z,84.89
2023-04-01T00:11:12.469Z,84.38
2023-04-01T00:12:12.464Z,84.79
2023-04-01T00:13:12.447Z,85.20
2023-04-01T00:14:12.439Z,85.30
2023-04-01T00:15:12.424Z,85.82
2023-04-01T00:16:20.988Z,85.20
2023-04-01T00:17:13.403Z,84.62
2023-04-01T00:18:12.384Z,84.38
2023-04-01T00:19:12.387Z,85.30
2023-04-01T00:20:12.378Z,85.82
2023-04-01T00:21:12.358Z,85.20
2023-04-01T00:22:12.340Z,85.41
2023-04-01T00:23:13.160Z,85.71
2023-04-01T00:24:12.322Z,85.71
2023-04-01T00:25:12.323Z,85.51
2023-04-01T00:26:12.309Z,84.79
2023-04-01T00:27:12.301Z,84.99
2023-04-01T00:28:12.303Z,85.41
2023-04-01T00:29:12.286Z,85.92
2023-04-01T00:30:12.258Z,84.48
2023-04-01T00:31:12.291Z,84.38
2023-04-01T00:32:12.257Z,84.27
2023-04-01T00:33:12.258Z,85.51
2023-04-01T00:34:12.223Z,84.79
2023-04-01T00:35:12.212Z,83.65
2023-04-01T00:36:12.225Z,84.38
2023-04-01T00:37:12.200Z,84.27
2023-04-01T00:38:12.177Z,83.55
2023-04-01T00:39:12.184Z,82.42
2023-04-01T00:40:12.846Z,83.11
2023-04-01T00:41:12.152Z,83.41
2023-04-01T00:42:12.145Z,82.59
2023-04-01T00:43:12.141Z,81.46
2023-04-01T00:44:12.237Z,81.67
2023-04-01T00:45:12.108Z,82.07
2023-04-01T00:46:12.107Z,81.87
2023-04-01T00:47:12.120Z,81.56
2023-04-01T00:48:12.124Z,81.87
2023-04-01T00:49:12.078Z,81.46
2023-04-01T00:50:12.047Z,82.39
2023-04-01T00:51:12.043Z,83.20
2023-04-01T00:52:12.044Z,83.20
2023-04-01T00:53:12.036Z,83.20
2023-04-01T00:54:12.027Z,83.20
2023-04-01T00:55:12.021Z,83.14
2023-04-01T00:56:11.985Z,82.42
2023-04-01T00:57:12.193Z,82.93
2023-04-01T00:58:11.975Z,82.28
2023-04-01T00:59:11.961Z,82.07
2023-04-01T01:00:11.938Z,82.59
2023-04-01T01:01:12.002Z,82.39
2023-04-01T01:02:11.942Z,81.97
2023-04-01T01:03:11.995Z,83.11
2023-04-01T01:04:11.907Z,82.79
2023-04-01T01:05:11.900Z,82.07
2023-04-01T01:06:11.881Z,83.00
2023-04-01T01:07:11.871Z,83.55
2023-04-01T01:08:11.861Z,81.67
2023-04-01T01:09:11.852Z,81.76
2023-04-01T01:10:11.849Z,82.39
2023-04-01T01:11:11.853Z,81.35
2023-04-01T01:12:11.815Z,81.97
2023-04-01T01:13:11.806Z,82.48
2023-04-01T01:14:11.791Z,81.15
2023-04-01T01:15:11.792Z,81.56
2023-04-01T01:16:11.790Z,81.05
2023-04-01T01:17:11.779Z,81.35
2023-04-01T01:18:11.760Z,81.25
2023-04-01T01:19:11.749Z,80.74
2023-04-01T01:20:24.929Z,81.05
2023-04-01T01:21:12.739Z,80.84
2023-04-01T01:22:12.522Z,81.35
2023-04-01T01:23:11.733Z,81.35
2023-04-01T01:24:11.703Z,81.25
2023-04-01T01:25:11.687Z,81.46
2023-04-01T01:26:11.666Z,80.43
2023-04-01T01:27:12.490Z,81.56
2023-04-01T01:28:11.644Z,81.60
2023-04-01T01:29:11.646Z,81.15
2023-04-01T01:30:11.622Z,82.32
2023-04-01T01:31:11.633Z,81.19
2023-04-01T01:32:11.608Z,81.60
2023-04-01T01:33:11.659Z,81.29
2023-04-01T01:34:12.395Z,81.60
2023-04-01T01:35:11.580Z,81.29
2023-04-01T01:36:11.605Z,81.60
2023-04-01T01:37:11.595Z,82.32
2023-04-01T01:38:11.539Z,81.49
2023-04-01T01:39:11.520Z,82.11
2023-04-01T01:40:11.525Z,81.81
2023-04-01T01:41:11.507Z,81.39
2023-04-01T01:42:11.540Z,81.81
2023-04-01T01:43:11.491Z,82.53
2023-04-01T01:44:11.492Z,82.01
2023-04-01T01:45:11.476Z,82.21
2023-04-01T01:46:11.511Z,82.73
2023-04-01T01:47:11.445Z,82.32
2023-04-01T01:48:12.311Z,82.35
2023-04-01T01:49:11.452Z,82.77
2023-04-01T01:50:11.428Z,82.35
2023-04-01T01:51:11.398Z,82.25
2023-04-01T01:52:12.203Z,82.56
2023-04-01T01:53:11.392Z,82.77
2023-04-01T01:54:11.380Z,82.87
2023-04-01T01:55:11.346Z,83.28
2023-04-01T01:56:11.366Z,83.39
2023-04-01T01:57:11.341Z,83.73
2023-04-01T01:58:11.341Z,84.14
2023-04-01T01:59:11.320Z,83.53
2023-04-01T02:00:12.121Z,83.42
2023-04-01T02:01:11.326Z,83.22
2023-04-01T02:02:11.295Z,84.25
2023-04-01T02:03:11.402Z,83.63
2023-04-01T02:04:11.380Z,83.01
2023-04-01T02:05:11.253Z,81.95
2023-04-01T02:06:11.252Z,82.35
2023-04-01T02:07:11.237Z,81.84
2023-04-01T02:08:11.231Z,82.25
2023-04-01T02:09:11.204Z,81.84
2023-04-01T02:10:11.202Z,82.29
2023-04-01T02:11:11.373Z,82.40
2023-04-01T02:12:11.179Z,83.12
2023-04-01T02:13:11.169Z,82.81
2023-04-01T02:14:11.156Z,82.09
2023-04-01T02:15:11.140Z,82.29
2023-04-01T02:16:11.196Z,81.67
2023-04-01T02:17:11.150Z,82.19
2023-04-01T02:18:11.132Z,81.98
2023-04-01T02:19:11.224Z,81.98
2023-04-01T02:20:11.098Z,82.40
2023-04-01T02:21:11.082Z,82.40
2023-04-01T02:22:11.093Z,82.91
2023-04-01T02:23:11.055Z,83.32
2023-04-01T02:24:11.072Z,83.15
2023-04-01T02:25:11.031Z,83.15
2023-04-01T02:26:11.030Z,83.01
2023-04-01T02:27:11.010Z,83.36
2023-04-01T02:28:11.016Z,83.12
2023-04-01T02:29:10.994Z,83.12
2023-04-01T02:30:11.016Z,82.95
2023-04-01T02:31:11.009Z,82.84
2023-04-01T02:32:10.979Z,83.36
2023-04-01T02:33:10.990Z,84.29
2023-04-01T02:34:10.966Z,83.47
2023-04-01T02:35:10.937Z,83.26
2023-04-01T02:36:10.939Z,83.67
2023-04-01T02:37:10.904Z,84.33
2023-04-01T02:38:10.896Z,84.74
2023-04-01T02:39:10.895Z,84.12
2023-04-01T02:40:10.991Z,84.43
2023-04-01T02:41:10.866Z,84.84
2023-04-01T02:42:10.855Z,84.12
2023-04-01T02:43:10.848Z,84.12
2023-04-01T02:44:10.845Z,84.01
2023-04-01T02:45:10.833Z,83.91
2023-04-01T02:46:10.856Z,84.12
2023-04-01T02:47:10.841Z,84.74
2023-04-01T02:48:10.802Z,83.61
2023-04-01T02:49:10.781Z,83.47
2023-04-01T02:50:10.803Z,83.47
2023-04-01T02:51:10.858Z,83.15
2023-04-01T02:52:10.757Z,82.95
2023-04-01T02:53:10.736Z,82.02
2023-04-01T02:54:10.735Z,81.98
2023-04-01T02:55:10.716Z,82.50
2023-04-01T02:56:10.729Z,81.98
2023-04-01T02:57:10.761Z,81.26
2023-04-01T02:58:10.698Z,80.85
2023-04-01T02:59:10.682Z,81.37
2023-04-01T03:00:10.670Z,79.88
2023-04-01T03:01:10.808Z,80.09
2023-04-01T03:02:11.515Z,79.68
2023-04-01T03:03:10.791Z,79.68
2023-04-01T03:04:10.645Z,79.99
2023-04-01T03:05:10.608Z,80.51
2023-04-01T03:06:10.618Z,80.95
2023-04-01T03:07:10.596Z,81.16
2023-04-01T03:08:11.189Z,81.26
2023-04-01T03:09:10.572Z,81.09
2023-04-01T03:10:10.582Z,80.33
2023-04-01T03:11:10.546Z,80.99
2023-04-01T03:12:11.364Z,81.20
2023-04-01T03:13:10.573Z,80.58
2023-04-01T03:14:10.535Z,79.93
2023-04-01T03:15:11.634Z,79.51
2023-04-01T03:16:11.413Z,79.82
2023-04-01T03:17:11.200Z,79.30
2023-04-01T03:18:10.483Z,78.24
2023-04-01T03:19:10.467Z,77.51
2023-04-01T03:20:10.477Z,77.51
2023-04-01T03:21:10.453Z,77.72
2023-04-01T03:22:10.453Z,77.28
2023-04-01T03:23:10.414Z,78.00
2023-04-01T03:24:10.445Z,78.24
2023-04-01T03:25:10.412Z,77.51
2023-04-01T03:26:10.402Z,77.83
2023-04-01T03:27:10.384Z,77.93
2023-04-01T03:28:10.372Z,78.03
2023-04-01T03:29:10.394Z,77.42
2023-04-01T03:30:10.413Z,77.11
2023-04-01T03:31:10.384Z,77.31
2023-04-01T03:32:10.342Z,77.11
2023-04-01T03:33:10.307Z,77.62
2023-04-01T03:34:10.405Z,76.79
2023-04-01T03:35:10.289Z,77.62
2023-04-01T03:36:10.993Z,76.70
2023-04-01T03:37:10.274Z,76.18
2023-04-01T03:38:10.277Z,76.49
2023-04-01T03:39:10.252Z,76.18
2023-04-01T03:40:10.254Z,76.18
2023-04-01T03:41:10.235Z,75.97
2023-04-01T03:42:10.237Z,76.59
2023-04-01T03:43:10.255Z,75.67
2023-04-01T03:44:10.209Z,75.32
2023-04-01T03:45:10.213Z,75.42
2023-04-01T03:46:10.248Z,75.12
2023-04-01T03:47:10.164Z,74.40
2023-04-01T03:48:10.995Z,75.32
2023-04-01T03:49:10.140Z,75.01
2023-04-01T03:50:10.158Z,75.67
2023-04-01T03:51:10.126Z,76.28
2023-04-01T03:52:10.132Z,76.73
2023-04-01T03:53:10.102Z,76.73
2023-04-01T03:54:10.116Z,77.66
2023-04-01T03:55:10.078Z,77.69
2023-04-01T03:56:10.093Z,76.97
2023-04-01T03:57:10.122Z,77.59
2023-04-01T03:58:10.066Z,76.56
2023-04-01T03:59:10.093Z,76.63
2023-04-01T04:00:10.123Z,77.25
2023-04-01T04:01:10.426Z,77.25
2023-04-01T04:02:10.057Z,76.83
2023-04-01T04:03:10.146Z,76.53
2023-04-01T04:04:10.078Z,76.83
2023-04-01T04:05:09.981Z,76.21
2023-04-01T04:06:09.993Z,76.83
2023-04-01T04:07:09.950Z,76.53
2023-04-01T04:08:09.951Z,76.18
2023-04-01T04:09:09.937Z,76.70
2023-04-01T04:10:09.952Z,76.70
2023-04-01T04:11:09.908Z,76.18
2023-04-01T04:12:09.911Z,75.67
2023-04-01T04:13:09.894Z,75.73
2023-04-01T04:14:09.921Z,75.42
2023-04-01T04:15:10.222Z,75.52
2023-04-01T04:16:09.901Z,75.01
2023-04-01T04:17:09.850Z,75.73
2023-04-01T04:18:09.845Z,75.22
2023-04-01T04:19:10.634Z,76.04
2023-04-01T04:20:09.876Z,76.35
2023-04-01T04:21:09.802Z,75.63
2023-04-01T04:22:09.853Z,76.14
2023-04-01T04:23:09.786Z,76.56
2023-04-01T04:24:09.789Z,75.22
2023-04-01T04:25:09.798Z,75.73
2023-04-01T04:26:09.763Z,75.32
2023-04-01T04:27:09.743Z,75.22
2023-04-01T04:28:09.743Z,75.22
2023-04-01T04:29:09.724Z,74.80
2023-04-01T04:30:09.744Z,75.52
2023-04-01T04:31:09.754Z,75.22
2023-04-01T04:32:09.697Z,75.12
2023-04-01T04:33:09.757Z,75.32
2023-04-01T04:34:09.679Z,76.56
2023-04-01T04:35:09.653Z,76.56
2023-04-01T04:36:10.206Z,75.42
2023-04-01T04:37:09.664Z,75.12
2023-04-01T04:38:09.663Z,75.73
2023-04-01T04:39:09.612Z,75.63
2023-04-01T04:40:09.637Z,76.66
2023-04-01T04:41:09.601Z,75.73
2023-04-01T04:42:09.741Z,75.84
2023-04-01T04:43:09.611Z,77.17
2023-04-01T04:44:09.575Z,76.39
2023-04-01T04:45:09.546Z,75.84
2023-04-01T04:46:09.553Z,75.22
2023-04-01T04:47:09.598Z,74.91
2023-04-01T04:48:09.585Z,75.63
2023-04-01T04:49:09.510Z,74.40
2023-04-01T04:50:09.536Z,73.95
2023-04-01T04:51:09.488Z,73.85
2023-04-01T04:52:09.488Z,74.67
2023-04-01T04:53:09.476Z,74.15
2023-04-01T04:54:09.460Z,75.04
2023-04-01T04:55:09.445Z,76.62
2023-04-01T04:56:09.445Z,76.42
2023-04-01T04:57:09.478Z,76.42
2023-04-01T04:58:09.420Z,78.06
2023-04-01T04:59:09.411Z,79.13
2023-04-01T05:00:09.428Z,78.92
2023-04-01T05:01:09.457Z,80.67
2023-04-01T05:02:09.456Z,82.01
2023-04-01T05:03:09.491Z,80.67
2023-04-01T05:04:09.535Z,81.74
2023-04-01T05:05:09.416Z,82.87
2023-04-01T05:06:09.355Z,83.80
2023-04-01T05:07:09.311Z,84.97
2023-04-01T05:08:09.325Z,85.17
2023-04-01T05:09:09.291Z,85.69
2023-04-01T05:10:09.327Z,84.45
2023-04-01T05:11:09.832Z,84.05
2023-04-01T05:12:09.278Z,84.05
2023-04-01T05:13:09.654Z,84.66
2023-04-01T05:14:09.258Z,84.66
2023-04-01T05:15:09.268Z,84.77
2023-04-01T05:16:09.269Z,85.07
2023-04-01T05:17:09.316Z,86.21
2023-04-01T05:18:09.374Z,86.10
2023-04-01T05:19:09.220Z,87.48
2023-04-01T05:20:09.216Z,86.45
2023-04-01T05:21:09.240Z,88.20
2023-04-01T05:22:09.973Z,89.95
2023-04-01T05:23:09.362Z,88.65
2023-04-01T05:24:09.171Z,89.79
2023-04-01T05:25:09.217Z,90.41
2023-04-01T05:26:09.134Z,90.31
2023-04-01T05:27:09.157Z,89.94
2023-04-01T05:28:09.116Z,89.62
2023-04-01T05:29:09.082Z,89.83
2023-04-01T05:30:09.107Z,89.11
2023-04-01T05:31:09.238Z,89.62
2023-04-01T05:32:09.865Z,90.25
2023-04-01T05:33:09.115Z,90.66
2023-04-01T05:34:09.042Z,89.83
2023-04-01T05:35:09.030Z,90.14
2023-04-01T05:36:09.323Z,90.45
2023-04-01T05:37:09.001Z,90.45
2023-04-01T05:38:08.999Z,91.38
2023-04-01T05:39:08.970Z,91.48
2023-04-01T05:40:09.019Z,91.79
2023-04-01T05:41:08.948Z,91.69
2023-04-01T05:42:08.966Z,90.97
2023-04-01T05:43:08.972Z,90.97
2023-04-01T05:44:08.934Z,91.58
2023-04-01T05:45:08.918Z,91.79
2023-04-01T05:46:08.919Z,91.79
2023-04-01T05:47:08.899Z,90.97
2023-04-01T05:48:08.882Z,89.83
2023-04-01T05:49:08.870Z,88.86
2023-04-01T05:50:08.859Z,87.93
2023-04-01T05:51:08.875Z,88.51
2023-04-01T05:52:08.833Z,89.13
2023-04-01T05:53:08.826Z,88.51
2023-04-01T05:54:08.812Z,87.27
2023-04-01T05:55:08.853Z,87.79
2023-04-01T05:56:08.804Z,88.31
2023-04-01T05:57:08.927Z,87.90
2023-04-01T05:58:08.803Z,88.41
2023-04-01T05:59:08.766Z,88.10
2023-04-01T06:00:08.754Z,88.41
2023-04-01T06:01:11.305Z,87.03
2023-04-01T06:02:09.728Z,87.96
2023-04-01T06:03:08.819Z,87.34
2023-04-01T06:04:08.822Z,85.59
2023-04-01T06:05:08.726Z,86.61
2023-04-01T06:06:08.676Z,86.41
2023-04-01T06:07:08.692Z,86.41
2023-04-01T06:08:08.944Z,86.10
2023-04-01T06:09:08.650Z,86.58
2023-04-01T06:10:08.742Z,87.30
2023-04-01T06:11:08.640Z,86.88
2023-04-01T06:12:08.684Z,86.58
2023-04-01T06:13:08.611Z,86.37
2023-04-01T06:14:08.617Z,84.21
2023-04-01T06:15:08.596Z,84.69
2023-04-01T06:16:08.605Z,84.89
2023-04-01T06:17:08.595Z,85.26
2023-04-01T06:18:08.661Z,84.64
2023-04-01T06:19:08.565Z,82.69
2023-04-01T06:20:08.547Z,81.97
2023-04-01T06:21:08.620Z,82.79
2023-04-01T06:22:08.527Z,84.13
2023-04-01T06:23:08.525Z,84.54
2023-04-01T06:24:08.498Z,83.41
2023-04-01T06:25:08.488Z,84.44
2023-04-01T06:26:08.465Z,82.55
2023-04-01T06:27:08.466Z,82.86
2023-04-01T06:28:09.259Z,83.27
2023-04-01T06:29:08.444Z,84.09
2023-04-01T06:30:08.476Z,82.00
2023-04-01T06:31:08.426Z,81.48
2023-04-01T06:32:08.421Z,81.38
2023-04-01T06:33:08.435Z,80.87
2023-04-01T06:34:08.379Z,82.06
2023-04-01T06:35:08.387Z,79.60
2023-04-01T06:36:08.448Z,80.11
2023-04-01T06:37:08.364Z,80.11
2023-04-01T06:38:08.340Z,81.65
2023-04-01T06:39:10.971Z,80.93
2023-04-01T06:40:09.137Z,81.51
2023-04-01T06:41:08.306Z,81.82
2023-04-01T06:42:08.351Z,79.05
2023-04-01T06:43:08.289Z,79.77
2023-04-01T06:44:08.309Z,79.56
2023-04-01T06:45:08.277Z,80.38
2023-04-01T06:46:08.275Z,81.62
2023-04-01T06:47:08.251Z,79.87
2023-04-01T06:48:09.083Z,80.01
2023-04-01T06:49:08.232Z,80.11
2023-04-01T06:50:08.209Z,79.19
2023-04-01T06:51:08.210Z,78.78
2023-04-01T06:52:08.208Z,79.70
2023-04-01T06:53:08.192Z,78.36
2023-04-01T06:54:08.191Z,77.44
2023-04-01T06:55:08.171Z,78.98
2023-04-01T06:56:08.365Z,79.08
2023-04-01T06:57:08.209Z,79.66
2023-04-01T06:58:08.135Z,78.47
2023-04-01T06:59:08.147Z,78.33
2023-04-01T07:00:08.129Z,78.12
2023-04-01T07:01:08.111Z,77.10
2023-04-01T07:02:08.177Z,79.05
2023-04-01T07:03:08.093Z,78.70
2023-04-01T07:04:08.069Z,76.34
2023-04-01T07:05:08.060Z,75.83
2023-04-01T07:06:08.043Z,76.96
2023-04-01T07:07:08.040Z,76.51
2023-04-01T07:08:08.021Z,75.69
2023-04-01T07:09:08.016Z,75.69
2023-04-01T07:10:07.991Z,74.77
2023-04-01T07:11:08.002Z,74.94
2023-04-01T07:12:07.975Z,73.33
2023-04-01T07:13:07.968Z,73.54
2023-04-01T07:14:07.980Z,72.51
2023-04-01T07:15:08.131Z,73.71
2023-04-01T07:16:07.930Z,74.02
2023-04-01T07:17:08.037Z,73.88
2023-04-01T07:18:07.979Z,73.27
2023-04-01T07:19:07.905Z,72.96
2023-04-01T07:20:07.901Z,73.88
2023-04-01T07:21:07.893Z,73.57
2023-04-01T07:22:07.861Z,74.80
2023-04-01T07:23:07.860Z,73.68
2023-04-01T07:24:07.842Z,73.57
2023-04-01T07:25:08.201Z,73.16
2023-04-01T07:26:07.824Z,72.24
2023-04-01T07:27:07.825Z,72.44
2023-04-01T07:28:07.795Z,72.89
2023-04-01T07:29:07.924Z,73.61
2023-04-01T07:30:07.783Z,73.30
2023-04-01T07:31:07.827Z,73.81
2023-04-01T07:32:07.784Z,73.23
2023-04-01T07:33:07.852Z,74.57
2023-04-01T07:34:07.732Z,74.57
2023-04-01T07:35:07.740Z,74.46
2023-04-01T07:36:07.752Z,75.90
2023-04-01T07:37:07.716Z,77.33
2023-04-01T07:38:07.700Z,76.72
2023-04-01T07:39:07.691Z,75.28
2023-04-01T07:40:07.672Z,75.11
2023-04-01T07:41:07.690Z,76.45
2023-04-01T07:42:07.648Z,76.51
2023-04-01T07:43:07.672Z,74.66
2023-04-01T07:44:07.631Z,75.08
2023-04-01T07:45:07.643Z,75.28
2023-04-01T07:46:07.641Z,76.89
2023-04-01T07:47:07.616Z,76.48
2023-04-01T07:48:08.585Z,76.27
2023-04-01T07:49:07.591Z,76.54
2023-04-01T07:50:07.576Z,75.52
2023-04-01T07:51:07.575Z,76.03
2023-04-01T07:52:07.553Z,74.05
2023-04-01T07:53:07.552Z,73.88
2023-04-01T07:54:07.526Z,74.56
2023-04-01T07:55:07.530Z,74.56
2023-04-01T07:56:07.506Z,73.13
2023-04-01T07:57:07.587Z,72.82
2023-04-01T07:58:07.487Z,74.11
2023-04-01T07:59:07.481Z,73.20
2023-04-01T08:00:07.489Z,73.50
2023-04-01T08:01:07.466Z,74.63
2023-04-01T08:02:07.454Z,72.38
2023-04-01T08:03:07.598Z,72.78
2023-04-01T08:04:07.621Z,72.28
2023-04-01T08:05:07.638Z,72.78
2023-04-01T08:06:07.425Z,73.88
2023-04-01T08:07:07.408Z,72.34
2023-04-01T08:08:07.425Z,73.68
2023-04-01T08:09:07.409Z,73.88
2023-04-01T08:10:07.364Z,72.75
2023-04-01T08:11:07.353Z,72.14
2023-04-01T08:12:07.339Z,74.29
2023-04-01T08:13:07.332Z,73.13
2023-04-01T08:14:07.327Z,72.62
2023-04-01T08:15:07.307Z,72.31
2023-04-01T08:16:07.321Z,72.21
2023-04-01T08:17:07.292Z,70.88
2023-04-01T08:18:07.323Z,70.88
2023-04-01T08:19:07.282Z,72.82
2023-04-01T08:20:07.246Z,71.90
2023-04-01T08:21:07.296Z,72.31
2023-04-01T08:22:07.237Z,73.23
2023-04-01T08:23:07.226Z,73.44
2023-04-01T08:24:07.203Z,72.31
2023-04-01T08:25:07.228Z,71.80
2023-04-01T08:26:07.179Z,72.04
2023-04-01T08:27:07.184Z,72.45
2023-04-01T08:28:07.169Z,72.65
2023-04-01T08:29:07.168Z,72.17
2023-04-01T08:30:09.391Z,72.78
2023-04-01T08:31:07.143Z,74.22
2023-04-01T08:32:07.197Z,72.38
2023-04-01T08:33:07.167Z,72.41
2023-04-01T08:34:07.118Z,73.95
2023-04-01T08:35:07.102Z,74.97
2023-04-01T08:36:07.185Z,76.10
2023-04-01T08:37:07.082Z,76.61
2023-04-01T08:38:07.062Z,75.59
2023-04-01T08:39:07.077Z,76.10
2023-04-01T08:40:07.060Z,75.59
2023-04-01T08:41:07.053Z,75.69
2023-04-01T08:42:07.552Z,75.62
2023-04-01T08:43:07.016Z,73.16
2023-04-01T08:44:07.014Z,75.21
2023-04-01T08:45:06.992Z,76.44
2023-04-01T08:46:06.985Z,76.44
2023-04-01T08:47:06.983Z,77.47
2023-04-01T08:48:07.168Z,75.01
2023-04-01T08:49:06.967Z,76.44
2023-04-01T08:50:07.068Z,77.47
2023-04-01T08:51:06.938Z,79.38
2023-04-01T08:52:06.908Z,79.58
2023-04-01T08:53:06.920Z,76.24
2023-04-01T08:54:06.896Z,77.16
2023-04-01T08:55:06.907Z,76.54
2023-04-01T08:56:06.870Z,78.90
2023-04-01T08:57:06.886Z,80.40
2023-04-01T08:58:06.868Z,79.27
2023-04-01T08:59:06.860Z,77.84
2023-04-01T09:00:06.854Z,77.23
2023-04-01T09:01:06.831Z,79.17
2023-04-01T09:02:06.833Z,80.60
2023-04-01T09:03:07.087Z,80.81
2023-04-01T09:04:06.828Z,79.99
2023-04-01T09:05:06.786Z,77.84
2023-04-01T09:06:07.574Z,79.48
2023-04-01T09:07:06.770Z,78.66
2023-04-01T09:08:06.754Z,79.58
2023-04-01T09:09:06.739Z,81.01
2023-04-01T09:10:06.741Z,79.07
2023-04-01T09:11:06.728Z,76.72
2023-04-01T09:12:06.744Z,80.60
2023-04-01T09:13:06.709Z,77.73
2023-04-01T09:14:06.672Z,80.40
2023-04-01T09:15:06.681Z,78.97
2023-04-01T09:16:06.732Z,79.68
2023-04-01T09:17:06.657Z,80.71
2023-04-01T09:18:06.727Z,77.98
2023-04-01T09:19:06.665Z,80.13
2023-04-01T09:20:06.620Z,83.31
2023-04-01T09:21:06.620Z,81.87
2023-04-01T09:22:06.598Z,77.77
2023-04-01T09:23:06.592Z,78.42
2023-04-01T09:24:06.590Z,81.57
2023-04-01T09:25:06.601Z,83.00
2023-04-01T09:26:06.560Z,81.46
2023-04-01T09:27:06.586Z,79.21
2023-04-01T09:28:06.542Z,80.44
2023-04-01T09:29:06.550Z,82.39
2023-04-01T09:30:06.550Z,80.03
2023-04-01T09:31:06.586Z,81.87
2023-04-01T09:32:06.504Z,82.08
2023-04-01T09:33:06.544Z,82.08
2023-04-01T09:34:06.480Z,83.51
2023-04-01T09:35:06.489Z,85.05
2023-04-01T09:36:07.349Z,85.97
2023-04-01T09:37:06.459Z,85.15
2023-04-01T09:38:06.453Z,84.80
2023-04-01T09:39:06.427Z,84.91
2023-04-01T09:40:06.420Z,85.11
2023-04-01T09:41:06.434Z,85.25
2023-04-01T09:42:06.402Z,79.72
2023-04-01T09:43:06.405Z,82.69
2023-04-01T09:44:06.388Z,85.11
2023-04-01T09:45:06.370Z,86.96
2023-04-01T09:46:06.402Z,86.34
2023-04-01T09:47:06.367Z,85.83
2023-04-01T09:48:06.353Z,83.58
2023-04-01T09:49:06.333Z,79.89
2023-04-01T09:50:06.311Z,80.81
2023-04-01T09:51:06.315Z,81.32
2023-04-01T09:52:06.306Z,78.08
2023-04-01T09:53:06.290Z,79.27
2023-04-01T09:54:06.268Z,79.79
2023-04-01T09:55:06.269Z,80.71
2023-04-01T09:56:06.241Z,80.51
2023-04-01T09:57:06.305Z,79.38
2023-04-01T09:58:06.250Z,79.79
2023-04-01T09:59:06.215Z,82.35
2023-04-01T10:00:06.214Z,80.40
2023-04-01T10:01:07.021Z,77.12
2023-04-01T10:02:06.296Z,76.78
2023-04-01T10:03:06.213Z,76.78
2023-04-01T10:04:06.173Z,78.79
2023-04-01T10:05:06.185Z,77.46
2023-04-01T10:06:06.173Z,74.56
2023-04-01T10:07:06.137Z,73.57
2023-04-01T10:08:06.376Z,73.57
2023-04-01T10:09:06.119Z,74.15
2023-04-01T10:10:06.112Z,75.89
2023-04-01T10:11:06.079Z,75.45
2023-04-01T10:12:06.083Z,75.34
2023-04-01T10:13:06.072Z,73.81
2023-04-01T10:14:06.069Z,75.75
2023-04-01T10:15:06.042Z,74.32
2023-04-01T10:16:06.107Z,73.81
2023-04-01T10:17:06.026Z,74.84
2023-04-01T10:18:06.162Z,76.16
2023-04-01T10:19:06.013Z,74.93
2023-04-01T10:20:05.992Z,72.79
2023-04-01T10:21:05.970Z,72.82
2023-04-01T10:22:05.976Z,74.63
2023-04-01T10:23:05.955Z,75.34
2023-04-01T10:24:05.948Z,74.43
2023-04-01T10:25:06.418Z,74.52
2023-04-01T10:26:05.928Z,76.43
2023-04-01T10:27:05.949Z,75.45
2023-04-01T10:28:05.915Z,75.45
2023-04-01T10:29:05.946Z,74.43
2023-04-01T10:30:05.891Z,74.90
2023-04-01T10:31:05.866Z,75.00
2023-04-01T10:32:05.903Z,76.33
2023-04-01T10:33:05.936Z,72.86
2023-04-01T10:34:05.844Z,72.72
2023-04-01T10:35:05.829Z,70.88
2023-04-01T10:36:05.904Z,73.03
2023-04-01T10:37:05.798Z,72.38
2023-04-01T10:38:05.811Z,71.46
2023-04-01T10:39:05.774Z,73.16
2023-04-01T10:40:05.783Z,72.55
2023-04-01T10:41:05.777Z,70.68
2023-04-01T10:42:05.748Z,69.11
2023-04-01T10:43:05.743Z,71.12
2023-04-01T10:44:05.729Z,68.98
2023-04-01T10:45:05.717Z,70.23
2023-04-01T10:46:05.766Z,69.73
2023-04-01T10:47:05.685Z,69.21
2023-04-01T10:48:05.749Z,70.03
2023-04-01T10:49:05.697Z,70.44
2023-04-01T10:50:05.660Z,70.37
2023-04-01T10:51:05.654Z,71.09
2023-04-01T10:52:05.681Z,70.71
2023-04-01T10:53:07.365Z,72.62
2023-04-01T10:54:05.614Z,72.55
2023-04-01T10:55:05.610Z,72.52
2023-04-01T10:56:05.590Z,71.77
2023-04-01T10:57:05.672Z,71.94
2023-04-01T10:58:05.650Z,72.11
2023-04-01T10:59:05.552Z,72.41
2023-04-01T11:00:05.563Z,73.33
2023-04-01T11:01:05.554Z,70.89
2023-04-01T11:02:11.426Z,72.11
2023-04-01T11:03:06.558Z,71.33
2023-04-01T11:04:05.512Z,71.36
2023-04-01T11:05:05.498Z,71.97
2023-04-01T11:06:05.482Z,71.80
2023-04-01T11:07:05.480Z,73.54
2023-04-01T11:08:06.868Z,72.11
2023-04-01T11:09:05.465Z,73.77
2023-04-01T11:10:05.450Z,74.80
2023-04-01T11:11:05.426Z,76.40
2023-04-01T11:12:05.449Z,76.50
2023-04-01T11:13:05.398Z,74.87
2023-04-01T11:14:05.405Z,76.81
2023-04-01T11:15:05.375Z,78.41
2023-04-01T11:16:05.435Z,73.30
2023-04-01T11:17:05.359Z,72.58
2023-04-01T11:18:05.417Z,74.52
2023-04-01T11:19:05.342Z,76.84
2023-04-01T11:20:05.334Z,71.05
2023-04-01T11:21:05.321Z,71.39
2023-04-01T11:22:05.313Z,71.91
2023-04-01T11:23:05.297Z,73.23
2023-04-01T11:24:06.080Z,72.38
2023-04-01T11:25:05.282Z,70.85
2023-04-01T11:26:05.266Z,70.95
2023-04-01T11:27:05.325Z,69.62
2023-04-01T11:28:05.261Z,69.59
2023-04-01T11:29:05.802Z,69.79
2023-04-01T11:30:05.224Z,69.56
2023-04-01T11:31:05.255Z,70.98
2023-04-01T11:32:05.204Z,67.85
2023-04-01T11:33:05.259Z,68.47
2023-04-01T11:34:05.181Z,68.50
2023-04-01T11:35:05.154Z,68.30
2023-04-01T11:36:05.152Z,72.17
2023-04-01T11:37:05.145Z,70.17
2023-04-01T11:38:05.138Z,68.94
2023-04-01T11:39:05.112Z,69.69
2023-04-01T11:40:05.114Z,72.45
2023-04-01T11:41:05.094Z,73.20
2023-04-01T11:42:05.898Z,73.88
2023-04-01T11:43:05.075Z,76.84
2023-04-01T11:44:05.061Z,77.42
2023-04-01T11:45:05.045Z,75.00
2023-04-01T11:46:05.132Z,75.62
2023-04-01T11:47:05.057Z,75.00
2023-04-01T11:48:05.071Z,75.41
2023-04-01T11:49:05.023Z,74.29
2023-04-01T11:50:05.029Z,75.58
2023-04-01T11:51:05.090Z,75.58
2023-04-01T11:52:04.982Z,72.48
2023-04-01T11:53:04.957Z,73.27
2023-04-01T11:54:04.958Z,74.69
2023-04-01T11:55:04.943Z,72.82
2023-04-01T11:56:04.958Z,73.33
2023-04-01T11:57:04.982Z,71.46
2023-04-01T11:58:04.918Z,70.98
2023-04-01T11:59:04.908Z,71.70
2023-04-01T12:00:04.897Z,69.38
2023-04-01T12:01:04.883Z,69.08
2023-04-01T12:02:05.699Z,69.29
2023-04-01T12:03:04.875Z,68.60
2023-04-01T12:04:05.070Z,68.09
2023-04-01T12:05:04.833Z,69.11
2023-04-01T12:06:04.824Z,71.05
2023-04-01T12:07:04.825Z,68.77
2023-04-01T12:08:04.805Z,69.18
2023-04-01T12:09:04.791Z,67.18
2023-04-01T12:10:04.942Z,70.20
2023-04-01T12:11:04.956Z,66.05
2023-04-01T12:12:04.766Z,66.46
2023-04-01T12:13:04.749Z,66.97
2023-04-01T12:14:04.743Z,67.07
2023-04-01T12:15:04.739Z,68.40
2023-04-01T12:16:04.740Z,66.77
2023-04-01T12:17:04.699Z,70.75
2023-04-01T12:18:04.795Z,67.55
2023-04-01T12:19:04.678Z,66.12
2023-04-01T12:20:04.672Z,66.74
2023-04-01T12:21:04.650Z,66.39
2023-04-01T12:22:04.663Z,64.66
2023-04-01T12:23:04.760Z,64.15
2023-04-01T12:24:04.636Z,64.56
2023-04-01T12:25:04.614Z,64.36
2023-04-01T12:26:04.612Z,66.16
2023-04-01T12:27:04.594Z,63.61
2023-04-01T12:28:04.586Z,64.32
2023-04-01T12:29:04.585Z,62.52
2023-04-01T12:30:04.566Z,63.64
2023-04-01T12:31:04.548Z,64.43
2023-04-01T12:32:04.624Z,64.53
2023-04-01T12:33:04.559Z,65.01
2023-04-01T12:34:04.540Z,64.22
2023-04-01T12:35:04.500Z,63.44
2023-04-01T12:36:04.538Z,65.68
2023-04-01T12:37:04.485Z,64.79
2023-04-01T12:38:04.484Z,66.53
2023-04-01T12:39:04.454Z,66.86
2023-04-01T12:40:04.475Z,66.25
2023-04-01T12:41:04.437Z,67.18
2023-04-01T12:42:04.439Z,68.30
2023-04-01T12:43:04.435Z,68.80
2023-04-01T12:44:04.423Z,70.34
2023-04-01T12:45:04.392Z,70.31
2023-04-01T12:46:04.406Z,71.12
2023-04-01T12:47:04.370Z,70.14
2023-04-01T12:48:04.431Z,72.04
2023-04-01T12:49:04.374Z,71.33
2023-04-01T12:50:04.353Z,71.60
2023-04-01T12:51:04.332Z,70.14
2023-04-01T12:52:04.338Z,66.13